sensor_id;sensor_type;location;lat;lon;timestamp;P1;durP1;ratioP1;P2;durP2;ratioP2
1294;SDS011;640;48.310;11.728;2022-09-16T00:01:10;15.27;;;9.00;;
1294;SDS011;640;48.310;11.728;2022-09-16T00:03:39;13.77;;;9.30;;
1294;SDS011;640;48.310;11.728;2022-09-16T00:06:15;11.93;;;9.43;;
1294;SDS011;640;48.310;11.728;2022-09-16T00:08:45;11.93;;;8.98;;
1294;SDS011;640;48.310;11.728;2022-09-16T00:11:14;13.73;;;9.23;;
1294;SDS011;640;48.310;11.728;2022-09-16T00:13:43;13.80;;;9.20;;
1294;SDS011;640;48.310;11.728;2022-09-16T00:16:13;12.80;;;9.23;;
1294;SDS011;640;48.310;11.728;2022-09-16T00:18:44;11.88;;;9.15;;
1294;SDS011;640;48.310;11.728;2022-09-16T00:21:12;13.05;;;9.05;;
1294;SDS011;640;48.310;11.728;2022-09-16T00:23:42;13.88;;;9.05;;
1294;SDS011;640;48.310;11.728;2022-09-16T00:26:10;13.77;;;9.03;;
1294;SDS011;640;48.310;11.728;2022-09-16T00:28:38;12.95;;;9.43;;
1294;SDS011;640;48.310;11.728;2022-09-16T00:31:07;11.43;;;9.05;;
1294;SDS011;640;48.310;11.728;2022-09-16T00:33:35;10.50;;;8.63;;
1294;SDS011;640;48.310;11.728;2022-09-16T00:36:05;11.48;;;8.70;;
1294;SDS011;640;48.310;11.728;2022-09-16T00:41:04;11.88;;;8.23;;
1294;SDS011;640;48.310;11.728;2022-09-16T00:43:46;12.90;;;8.10;;
1294;SDS011;640;48.310;11.728;2022-09-16T00:46:15;14.52;;;8.43;;
1294;SDS011;640;48.310;11.728;2022-09-16T00:48:45;10.20;;;8.15;;
1294;SDS011;640;48.310;11.728;2022-09-16T00:51:14;14.73;;;8.18;;
1294;SDS011;640;48.310;11.728;2022-09-16T00:53:44;9.85;;;8.10;;
1294;SDS011;640;48.310;11.728;2022-09-16T00:56:17;13.63;;;7.88;;
1294;SDS011;640;48.310;11.728;2022-09-16T00:58:49;10.23;;;8.20;;
1294;SDS011;640;48.310;11.728;2022-09-16T01:03:49;10.80;;;7.82;;
1294;SDS011;640;48.310;11.728;2022-09-16T01:06:20;11.52;;;7.97;;
1294;SDS011;640;48.310;11.728;2022-09-16T01:11:20;13.27;;;7.90;;
1294;SDS011;640;48.310;11.728;2022-09-16T01:13:49;10.77;;;7.80;;
1294;SDS011;640;48.310;11.728;2022-09-16T01:16:20;10.57;;;7.78;;
1294;SDS011;640;48.310;11.728;2022-09-16T01:18:52;10.23;;;8.32;;
1294;SDS011;640;48.310;11.728;2022-09-16T01:21:28;14.35;;;8.10;;
1294;SDS011;640;48.310;11.728;2022-09-16T01:27:24;10.50;;;8.25;;
1294;SDS011;640;48.310;11.728;2022-09-16T01:30:17;11.27;;;7.47;;
1294;SDS011;640;48.310;11.728;2022-09-16T01:33:09;9.75;;;7.57;;
1294;SDS011;640;48.310;11.728;2022-09-16T01:35:47;9.45;;;7.55;;
1294;SDS011;640;48.310;11.728;2022-09-16T01:38:25;11.75;;;7.45;;
1294;SDS011;640;48.310;11.728;2022-09-16T01:41:04;9.60;;;7.32;;
1294;SDS011;640;48.310;11.728;2022-09-16T01:43:38;9.05;;;7.55;;
1294;SDS011;640;48.310;11.728;2022-09-16T01:46:14;10.80;;;7.40;;
1294;SDS011;640;48.310;11.728;2022-09-16T01:48:50;10.50;;;7.35;;
1294;SDS011;640;48.310;11.728;2022-09-16T01:51:22;9.77;;;7.45;;
1294;SDS011;640;48.310;11.728;2022-09-16T01:53:54;9.38;;;7.30;;
1294;SDS011;640;48.310;11.728;2022-09-16T01:56:31;10.35;;;7.63;;
1294;SDS011;640;48.310;11.728;2022-09-16T01:59:04;8.55;;;7.20;;
1294;SDS011;640;48.310;11.728;2022-09-16T02:01:35;9.23;;;7.63;;
1294;SDS011;640;48.310;11.728;2022-09-16T02:04:09;12.68;;;7.97;;
1294;SDS011;640;48.310;11.728;2022-09-16T02:06:40;8.98;;;7.50;;
1294;SDS011;640;48.310;11.728;2022-09-16T02:09:12;10.02;;;7.25;;
1294;SDS011;640;48.310;11.728;2022-09-16T02:11:44;8.45;;;7.43;;
1294;SDS011;640;48.310;11.728;2022-09-16T02:14:15;8.75;;;7.80;;
1294;SDS011;640;48.310;11.728;2022-09-16T02:16:45;11.77;;;7.80;;
1294;SDS011;640;48.310;11.728;2022-09-16T02:19:19;9.30;;;7.43;;
1294;SDS011;640;48.310;11.728;2022-09-16T02:21:50;9.20;;;7.28;;
1294;SDS011;640;48.310;11.728;2022-09-16T02:24:19;10.77;;;7.40;;
1294;SDS011;640;48.310;11.728;2022-09-16T02:26:51;11.40;;;7.72;;
1294;SDS011;640;48.310;11.728;2022-09-16T02:29:22;7.68;;;6.68;;
1294;SDS011;640;48.310;11.728;2022-09-16T02:31:54;8.27;;;7.03;;
1294;SDS011;640;48.310;11.728;2022-09-16T02:34:28;8.25;;;7.10;;
1294;SDS011;640;48.310;11.728;2022-09-16T02:37:00;8.75;;;6.63;;
1294;SDS011;640;48.310;11.728;2022-09-16T02:39:31;10.15;;;6.70;;
1294;SDS011;640;48.310;11.728;2022-09-16T02:42:03;8.93;;;7.40;;
1294;SDS011;640;48.310;11.728;2022-09-16T02:44:32;10.65;;;7.35;;
1294;SDS011;640;48.310;11.728;2022-09-16T02:47:04;9.10;;;7.00;;
1294;SDS011;640;48.310;11.728;2022-09-16T02:49:38;10.55;;;6.60;;
1294;SDS011;640;48.310;11.728;2022-09-16T02:52:12;10.98;;;6.53;;
1294;SDS011;640;48.310;11.728;2022-09-16T02:54:45;8.88;;;6.75;;
1294;SDS011;640;48.310;11.728;2022-09-16T02:57:17;8.90;;;6.70;;
1294;SDS011;640;48.310;11.728;2022-09-16T02:59:46;9.05;;;7.05;;
1294;SDS011;640;48.310;11.728;2022-09-16T03:02:14;8.25;;;6.88;;
1294;SDS011;640;48.310;11.728;2022-09-16T03:04:44;10.30;;;7.13;;
1294;SDS011;640;48.310;11.728;2022-09-16T03:07:12;9.68;;;6.70;;
1294;SDS011;640;48.310;11.728;2022-09-16T03:09:43;10.73;;;7.37;;
1294;SDS011;640;48.310;11.728;2022-09-16T03:12:18;9.32;;;6.95;;
1294;SDS011;640;48.310;11.728;2022-09-16T03:18:10;7.53;;;6.53;;
1294;SDS011;640;48.310;11.728;2022-09-16T03:20:49;11.73;;;6.55;;
1294;SDS011;640;48.310;11.728;2022-09-16T03:23:22;8.52;;;6.80;;
1294;SDS011;640;48.310;11.728;2022-09-16T03:25:56;9.38;;;6.70;;
1294;SDS011;640;48.310;11.728;2022-09-16T03:28:26;10.18;;;7.13;;
1294;SDS011;640;48.310;11.728;2022-09-16T03:31:02;10.60;;;6.75;;
1294;SDS011;640;48.310;11.728;2022-09-16T03:33:34;10.77;;;7.53;;
1294;SDS011;640;48.310;11.728;2022-09-16T03:36:08;12.07;;;6.82;;
1294;SDS011;640;48.310;11.728;2022-09-16T03:38:41;9.00;;;7.10;;
1294;SDS011;640;48.310;11.728;2022-09-16T03:41:10;8.52;;;7.15;;
1294;SDS011;640;48.310;11.728;2022-09-16T03:43:39;9.60;;;7.25;;
1294;SDS011;640;48.310;11.728;2022-09-16T03:46:09;12.43;;;8.10;;
1294;SDS011;640;48.310;11.728;2022-09-16T03:48:38;9.73;;;7.32;;
1294;SDS011;640;48.310;11.728;2022-09-16T03:51:07;11.68;;;7.53;;
1294;SDS011;640;48.310;11.728;2022-09-16T03:53:36;9.57;;;7.20;;
1294;SDS011;640;48.310;11.728;2022-09-16T03:56:04;11.70;;;8.05;;
1294;SDS011;640;48.310;11.728;2022-09-16T03:58:33;12.40;;;7.95;;
1294;SDS011;640;48.310;11.728;2022-09-16T04:01:02;11.50;;;8.20;;
1294;SDS011;640;48.310;11.728;2022-09-16T04:03:30;13.52;;;8.35;;
1294;SDS011;640;48.310;11.728;2022-09-16T04:05:59;13.13;;;9.40;;
1294;SDS011;640;48.310;11.728;2022-09-16T04:08:29;12.60;;;9.80;;
1294;SDS011;640;48.310;11.728;2022-09-16T04:10:58;13.13;;;9.17;;
1294;SDS011;640;48.310;11.728;2022-09-16T04:13:28;15.10;;;8.68;;
1294;SDS011;640;48.310;11.728;2022-09-16T04:15:57;12.80;;;9.73;;
1294;SDS011;640;48.310;11.728;2022-09-16T04:18:25;13.65;;;9.93;;
1294;SDS011;640;48.310;11.728;2022-09-16T04:20:55;14.68;;;10.25;;
1294;SDS011;640;48.310;11.728;2022-09-16T04:23:24;13.65;;;9.38;;
1294;SDS011;640;48.310;11.728;2022-09-16T04:25:54;12.55;;;9.65;;
1294;SDS011;640;48.310;11.728;2022-09-16T04:28:23;14.75;;;10.40;;
1294;SDS011;640;48.310;11.728;2022-09-16T04:30:51;18.67;;;10.85;;
1294;SDS011;640;48.310;11.728;2022-09-16T04:33:20;14.68;;;10.23;;
1294;SDS011;640;48.310;11.728;2022-09-16T04:35:49;14.63;;;10.55;;
1294;SDS011;640;48.310;11.728;2022-09-16T04:38:17;15.27;;;10.82;;
1294;SDS011;640;48.310;11.728;2022-09-16T04:40:45;15.95;;;10.30;;
1294;SDS011;640;48.310;11.728;2022-09-16T04:43:15;14.52;;;10.07;;
1294;SDS011;640;48.310;11.728;2022-09-16T04:45:43;12.55;;;10.48;;
1294;SDS011;640;48.310;11.728;2022-09-16T04:48:12;16.90;;;10.35;;
1294;SDS011;640;48.310;11.728;2022-09-16T04:50:40;12.95;;;10.43;;
1294;SDS011;640;48.310;11.728;2022-09-16T04:53:09;14.98;;;10.38;;
1294;SDS011;640;48.310;11.728;2022-09-16T04:55:37;15.85;;;11.00;;
1294;SDS011;640;48.310;11.728;2022-09-16T04:58:05;15.60;;;11.30;;
1294;SDS011;640;48.310;11.728;2022-09-16T05:00:35;13.85;;;11.18;;
1294;SDS011;640;48.310;11.728;2022-09-16T05:03:04;14.73;;;11.27;;
1294;SDS011;640;48.310;11.728;2022-09-16T05:05:32;16.98;;;11.18;;
1294;SDS011;640;48.310;11.728;2022-09-16T05:08:01;17.70;;;11.02;;
1294;SDS011;640;48.310;11.728;2022-09-16T05:10:29;15.35;;;11.00;;
1294;SDS011;640;48.310;11.728;2022-09-16T05:13:04;14.63;;;10.73;;
1294;SDS011;640;48.310;11.728;2022-09-16T05:15:36;17.98;;;11.30;;
1294;SDS011;640;48.310;11.728;2022-09-16T05:18:04;14.88;;;10.77;;
1294;SDS011;640;48.310;11.728;2022-09-16T05:20:33;15.75;;;10.82;;
1294;SDS011;640;48.310;11.728;2022-09-16T05:23:02;15.90;;;11.52;;
1294;SDS011;640;48.310;11.728;2022-09-16T05:25:31;14.70;;;10.45;;
1294;SDS011;640;48.310;11.728;2022-09-16T05:28:00;14.07;;;11.20;;
1294;SDS011;640;48.310;11.728;2022-09-16T05:30:29;14.48;;;11.82;;
1294;SDS011;640;48.310;11.728;2022-09-16T05:32:59;15.50;;;11.40;;
1294;SDS011;640;48.310;11.728;2022-09-16T05:35:27;13.67;;;10.97;;
1294;SDS011;640;48.310;11.728;2022-09-16T05:37:55;15.65;;;10.88;;
1294;SDS011;640;48.310;11.728;2022-09-16T05:40:24;14.57;;;10.80;;
1294;SDS011;640;48.310;11.728;2022-09-16T05:42:53;14.48;;;10.55;;
1294;SDS011;640;48.310;11.728;2022-09-16T05:45:22;14.85;;;10.85;;
1294;SDS011;640;48.310;11.728;2022-09-16T05:47:58;16.08;;;10.82;;
1294;SDS011;640;48.310;11.728;2022-09-16T05:50:27;14.52;;;11.10;;
1294;SDS011;640;48.310;11.728;2022-09-16T05:52:55;17.67;;;10.85;;
1294;SDS011;640;48.310;11.728;2022-09-16T05:55:23;15.23;;;11.23;;
1294;SDS011;640;48.310;11.728;2022-09-16T05:57:52;15.20;;;10.95;;
1294;SDS011;640;48.310;11.728;2022-09-16T06:00:20;15.50;;;11.05;;
1294;SDS011;640;48.310;11.728;2022-09-16T06:02:49;14.57;;;10.82;;
1294;SDS011;640;48.310;11.728;2022-09-16T06:05:19;15.90;;;10.93;;
1294;SDS011;640;48.310;11.728;2022-09-16T06:07:47;17.83;;;10.95;;
1294;SDS011;640;48.310;11.728;2022-09-16T06:10:16;14.43;;;10.38;;
1294;SDS011;640;48.310;11.728;2022-09-16T06:12:44;14.15;;;10.65;;
1294;SDS011;640;48.310;11.728;2022-09-16T06:15:30;14.25;;;10.60;;
1294;SDS011;640;48.310;11.728;2022-09-16T06:17:59;16.67;;;11.35;;
1294;SDS011;640;48.310;11.728;2022-09-16T06:20:35;14.13;;;10.35;;
1294;SDS011;640;48.310;11.728;2022-09-16T06:23:03;12.38;;;10.35;;
1294;SDS011;640;48.310;11.728;2022-09-16T06:25:31;15.02;;;11.05;;
1294;SDS011;640;48.310;11.728;2022-09-16T06:28:00;13.88;;;10.55;;
1294;SDS011;640;48.310;11.728;2022-09-16T06:30:29;13.38;;;10.60;;
1294;SDS011;640;48.310;11.728;2022-09-16T06:32:57;16.25;;;10.20;;
1294;SDS011;640;48.310;11.728;2022-09-16T06:35:26;14.85;;;9.93;;
1294;SDS011;640;48.310;11.728;2022-09-16T06:37:56;13.80;;;10.25;;
1294;SDS011;640;48.310;11.728;2022-09-16T06:42:53;13.88;;;9.73;;
1294;SDS011;640;48.310;11.728;2022-09-16T06:45:25;12.20;;;9.68;;
1294;SDS011;640;48.310;11.728;2022-09-16T06:47:57;16.50;;;10.52;;
1294;SDS011;640;48.310;11.728;2022-09-16T06:50:26;15.15;;;11.05;;
1294;SDS011;640;48.310;11.728;2022-09-16T06:52:56;12.45;;;10.00;;
1294;SDS011;640;48.310;11.728;2022-09-16T06:55:25;14.30;;;10.13;;
1294;SDS011;640;48.310;11.728;2022-09-16T06:57:55;14.05;;;10.25;;
1294;SDS011;640;48.310;11.728;2022-09-16T07:00:23;12.40;;;9.52;;
1294;SDS011;640;48.310;11.728;2022-09-16T07:02:52;14.82;;;9.70;;
1294;SDS011;640;48.310;11.728;2022-09-16T07:05:20;14.70;;;10.15;;
1294;SDS011;640;48.310;11.728;2022-09-16T07:07:49;11.82;;;9.82;;
1294;SDS011;640;48.310;11.728;2022-09-16T07:10:20;14.02;;;10.25;;
1294;SDS011;640;48.310;11.728;2022-09-16T07:12:50;16.00;;;10.63;;
1294;SDS011;640;48.310;11.728;2022-09-16T07:15:18;15.73;;;10.50;;
1294;SDS011;640;48.310;11.728;2022-09-16T07:17:47;15.65;;;10.55;;
1294;SDS011;640;48.310;11.728;2022-09-16T07:20:20;15.82;;;11.30;;
1294;SDS011;640;48.310;11.728;2022-09-16T07:22:49;15.15;;;10.80;;
1294;SDS011;640;48.310;11.728;2022-09-16T07:27:49;15.68;;;10.25;;
1294;SDS011;640;48.310;11.728;2022-09-16T07:30:17;11.07;;;9.35;;
1294;SDS011;640;48.310;11.728;2022-09-16T07:32:45;16.35;;;10.57;;
1294;SDS011;640;48.310;11.728;2022-09-16T07:35:14;13.70;;;10.35;;
1294;SDS011;640;48.310;11.728;2022-09-16T07:37:42;12.63;;;10.07;;
1294;SDS011;640;48.310;11.728;2022-09-16T07:40:10;14.25;;;10.18;;
1294;SDS011;640;48.310;11.728;2022-09-16T07:42:41;15.05;;;9.63;;
1294;SDS011;640;48.310;11.728;2022-09-16T07:45:09;12.67;;;9.93;;
1294;SDS011;640;48.310;11.728;2022-09-16T07:47:38;15.65;;;9.75;;
1294;SDS011;640;48.310;11.728;2022-09-16T07:50:06;14.20;;;9.50;;
1294;SDS011;640;48.310;11.728;2022-09-16T07:52:35;13.75;;;9.75;;
1294;SDS011;640;48.310;11.728;2022-09-16T07:55:04;13.98;;;9.45;;
1294;SDS011;640;48.310;11.728;2022-09-16T07:57:33;14.23;;;9.60;;
1294;SDS011;640;48.310;11.728;2022-09-16T08:00:03;12.02;;;9.02;;
1294;SDS011;640;48.310;11.728;2022-09-16T08:02:32;16.40;;;9.23;;
1294;SDS011;640;48.310;11.728;2022-09-16T08:05:01;12.27;;;9.15;;
1294;SDS011;640;48.310;11.728;2022-09-16T08:07:29;12.93;;;9.88;;
1294;SDS011;640;48.310;11.728;2022-09-16T08:09:57;12.68;;;9.32;;
1294;SDS011;640;48.310;11.728;2022-09-16T08:12:26;11.93;;;9.77;;
1294;SDS011;640;48.310;11.728;2022-09-16T08:14:58;17.80;;;10.02;;
1294;SDS011;640;48.310;11.728;2022-09-16T08:17:27;11.18;;;9.23;;
1294;SDS011;640;48.310;11.728;2022-09-16T08:19:59;12.85;;;9.60;;
1294;SDS011;640;48.310;11.728;2022-09-16T08:22:32;13.48;;;10.20;;
1294;SDS011;640;48.310;11.728;2022-09-16T08:25:00;14.75;;;9.57;;
1294;SDS011;640;48.310;11.728;2022-09-16T08:27:29;13.77;;;9.43;;
1294;SDS011;640;48.310;11.728;2022-09-16T08:29:57;13.13;;;9.85;;
1294;SDS011;640;48.310;11.728;2022-09-16T08:32:25;14.07;;;9.18;;
1294;SDS011;640;48.310;11.728;2022-09-16T08:34:56;14.05;;;9.93;;
1294;SDS011;640;48.310;11.728;2022-09-16T08:37:25;12.65;;;9.82;;
1294;SDS011;640;48.310;11.728;2022-09-16T08:39:53;11.05;;;8.88;;
1294;SDS011;640;48.310;11.728;2022-09-16T08:42:27;13.45;;;9.32;;
1294;SDS011;640;48.310;11.728;2022-09-16T08:45:01;12.70;;;9.18;;
1294;SDS011;640;48.310;11.728;2022-09-16T08:47:41;14.43;;;9.57;;
1294;SDS011;640;48.310;11.728;2022-09-16T08:50:16;11.48;;;9.05;;
1294;SDS011;640;48.310;11.728;2022-09-16T08:52:49;12.85;;;9.80;;
1294;SDS011;640;48.310;11.728;2022-09-16T08:55:20;13.63;;;9.57;;
1294;SDS011;640;48.310;11.728;2022-09-16T08:57:58;15.98;;;9.45;;
1294;SDS011;640;48.310;11.728;2022-09-16T09:00:29;15.55;;;10.02;;
1294;SDS011;640;48.310;11.728;2022-09-16T09:03:01;13.98;;;10.98;;
1294;SDS011;640;48.310;11.728;2022-09-16T09:05:35;14.65;;;10.27;;
1294;SDS011;640;48.310;11.728;2022-09-16T09:08:12;13.50;;;11.00;;
1294;SDS011;640;48.310;11.728;2022-09-16T09:10:48;12.85;;;10.38;;
1294;SDS011;640;48.310;11.728;2022-09-16T09:13:25;16.30;;;10.70;;
1294;SDS011;640;48.310;11.728;2022-09-16T09:16:03;14.40;;;10.20;;
1294;SDS011;640;48.310;11.728;2022-09-16T09:18:39;13.93;;;10.07;;
1294;SDS011;640;48.310;11.728;2022-09-16T09:21:14;12.15;;;10.15;;
1294;SDS011;640;48.310;11.728;2022-09-16T09:24:11;12.38;;;10.15;;
1294;SDS011;640;48.310;11.728;2022-09-16T09:26:48;16.15;;;10.57;;
1294;SDS011;640;48.310;11.728;2022-09-16T09:29:22;13.23;;;10.70;;
1294;SDS011;640;48.310;11.728;2022-09-16T09:34:46;17.83;;;10.32;;
1294;SDS011;640;48.310;11.728;2022-09-16T09:37:37;15.13;;;10.57;;
1294;SDS011;640;48.310;11.728;2022-09-16T09:40:14;16.23;;;11.02;;
1294;SDS011;640;48.310;11.728;2022-09-16T09:42:47;16.55;;;11.13;;
1294;SDS011;640;48.310;11.728;2022-09-16T09:45:19;19.15;;;11.15;;
1294;SDS011;640;48.310;11.728;2022-09-16T09:47:53;13.13;;;9.63;;
1294;SDS011;640;48.310;11.728;2022-09-16T09:50:26;15.95;;;10.98;;
1294;SDS011;640;48.310;11.728;2022-09-16T09:52:58;15.25;;;10.73;;
1294;SDS011;640;48.310;11.728;2022-09-16T09:55:33;14.73;;;9.88;;
1294;SDS011;640;48.310;11.728;2022-09-16T09:58:09;14.85;;;10.38;;
1294;SDS011;640;48.310;11.728;2022-09-16T10:03:11;14.90;;;9.05;;
1294;SDS011;640;48.310;11.728;2022-09-16T10:05:44;15.55;;;9.05;;
1294;SDS011;640;48.310;11.728;2022-09-16T10:08:16;15.52;;;9.40;;
1294;SDS011;640;48.310;11.728;2022-09-16T10:10:48;15.90;;;9.98;;
1294;SDS011;640;48.310;11.728;2022-09-16T10:13:18;13.40;;;9.63;;
1294;SDS011;640;48.310;11.728;2022-09-16T10:15:47;15.45;;;10.88;;
1294;SDS011;640;48.310;11.728;2022-09-16T10:18:23;14.32;;;9.95;;
1294;SDS011;640;48.310;11.728;2022-09-16T10:21:01;8.30;;;5.85;;
1294;SDS011;640;48.310;11.728;2022-09-16T10:23:32;4.85;;;3.90;;
1294;SDS011;640;48.310;11.728;2022-09-16T10:26:05;5.00;;;4.28;;
1294;SDS011;640;48.310;11.728;2022-09-16T10:28:41;8.07;;;4.82;;
1294;SDS011;640;48.310;11.728;2022-09-16T10:31:21;8.60;;;5.78;;
1294;SDS011;640;48.310;11.728;2022-09-16T10:33:50;7.35;;;5.68;;
1294;SDS011;640;48.310;11.728;2022-09-16T10:36:20;9.88;;;6.20;;
1294;SDS011;640;48.310;11.728;2022-09-16T10:38:52;8.30;;;6.38;;
1294;SDS011;640;48.310;11.728;2022-09-16T10:41:28;7.43;;;6.30;;
1294;SDS011;640;48.310;11.728;2022-09-16T10:44:00;11.23;;;6.75;;
1294;SDS011;640;48.310;11.728;2022-09-16T10:46:30;10.55;;;6.15;;
1294;SDS011;640;48.310;11.728;2022-09-16T10:48:59;13.73;;;7.30;;
1294;SDS011;640;48.310;11.728;2022-09-16T10:51:30;11.90;;;7.72;;
1294;SDS011;640;48.310;11.728;2022-09-16T10:54:22;9.27;;;6.97;;
1294;SDS011;640;48.310;11.728;2022-09-16T10:56:51;14.07;;;7.65;;
1294;SDS011;640;48.310;11.728;2022-09-16T10:59:20;10.45;;;7.10;;
1294;SDS011;640;48.310;11.728;2022-09-16T11:01:50;10.13;;;6.78;;
1294;SDS011;640;48.310;11.728;2022-09-16T11:07:26;8.13;;;4.03;;
1294;SDS011;640;48.310;11.728;2022-09-16T11:12:41;5.30;;;2.90;;
1294;SDS011;640;48.310;11.728;2022-09-16T11:15:19;6.78;;;3.20;;
1294;SDS011;640;48.310;11.728;2022-09-16T11:17:58;6.90;;;3.47;;
1294;SDS011;640;48.310;11.728;2022-09-16T11:20:43;7.72;;;4.47;;
1294;SDS011;640;48.310;11.728;2022-09-16T11:23:22;6.03;;;3.70;;
1294;SDS011;640;48.310;11.728;2022-09-16T11:25:58;7.25;;;4.28;;
1294;SDS011;640;48.310;11.728;2022-09-16T11:28:36;7.97;;;5.00;;
1294;SDS011;640;48.310;11.728;2022-09-16T11:31:14;9.32;;;5.90;;
1294;SDS011;640;48.310;11.728;2022-09-16T11:33:50;6.63;;;4.90;;
1294;SDS011;640;48.310;11.728;2022-09-16T11:36:30;7.65;;;4.53;;
1294;SDS011;640;48.310;11.728;2022-09-16T11:39:12;6.72;;;4.03;;
1294;SDS011;640;48.310;11.728;2022-09-16T11:41:52;7.43;;;3.97;;
1294;SDS011;640;48.310;11.728;2022-09-16T11:47:13;7.95;;;4.63;;
1294;SDS011;640;48.310;11.728;2022-09-16T11:49:58;7.03;;;4.28;;
1294;SDS011;640;48.310;11.728;2022-09-16T11:52:53;8.07;;;4.93;;
1294;SDS011;640;48.310;11.728;2022-09-16T11:55:36;6.38;;;4.30;;
1294;SDS011;640;48.310;11.728;2022-09-16T11:58:13;10.25;;;5.13;;
1294;SDS011;640;48.310;11.728;2022-09-16T12:00:47;10.85;;;5.30;;
1294;SDS011;640;48.310;11.728;2022-09-16T12:03:19;9.85;;;5.82;;
1294;SDS011;640;48.310;11.728;2022-09-16T12:05:53;6.57;;;5.00;;
1294;SDS011;640;48.310;11.728;2022-09-16T12:08:30;8.35;;;5.03;;
1294;SDS011;640;48.310;11.728;2022-09-16T12:11:04;7.93;;;5.30;;
1294;SDS011;640;48.310;11.728;2022-09-16T12:13:40;10.60;;;7.65;;
1294;SDS011;640;48.310;11.728;2022-09-16T12:16:11;6.80;;;6.10;;
1294;SDS011;640;48.310;11.728;2022-09-16T12:18:48;8.88;;;5.80;;
1294;SDS011;640;48.310;11.728;2022-09-16T12:21:19;8.75;;;5.82;;
1294;SDS011;640;48.310;11.728;2022-09-16T12:23:54;7.30;;;5.80;;
1294;SDS011;640;48.310;11.728;2022-09-16T12:26:25;8.27;;;6.05;;
1294;SDS011;640;48.310;11.728;2022-09-16T12:28:58;10.35;;;6.10;;
1294;SDS011;640;48.310;11.728;2022-09-16T12:31:32;10.10;;;6.25;;
1294;SDS011;640;48.310;11.728;2022-09-16T12:34:02;11.63;;;5.97;;
1294;SDS011;640;48.310;11.728;2022-09-16T12:39:01;9.25;;;5.55;;
1294;SDS011;640;48.310;11.728;2022-09-16T12:41:44;7.50;;;5.90;;
1294;SDS011;640;48.310;11.728;2022-09-16T12:47:37;7.90;;;5.88;;
1294;SDS011;640;48.310;11.728;2022-09-16T12:56:36;8.48;;;5.50;;
1294;SDS011;640;48.310;11.728;2022-09-16T12:59:21;10.43;;;6.30;;
1294;SDS011;640;48.310;11.728;2022-09-16T13:02:09;9.75;;;4.60;;
1294;SDS011;640;48.310;11.728;2022-09-16T13:04:41;7.22;;;4.95;;
1294;SDS011;640;48.310;11.728;2022-09-16T13:07:16;5.00;;;4.28;;
1294;SDS011;640;48.310;11.728;2022-09-16T13:09:48;7.78;;;4.40;;
1294;SDS011;640;48.310;11.728;2022-09-16T13:12:20;6.85;;;5.00;;
1294;SDS011;640;48.310;11.728;2022-09-16T13:15:07;6.60;;;4.28;;
1294;SDS011;640;48.310;11.728;2022-09-16T13:17:47;6.60;;;4.30;;
1294;SDS011;640;48.310;11.728;2022-09-16T13:20:19;8.68;;;4.40;;
1294;SDS011;640;48.310;11.728;2022-09-16T13:23:05;5.82;;;4.10;;
1294;SDS011;640;48.310;11.728;2022-09-16T13:25:42;6.60;;;4.82;;
1294;SDS011;640;48.310;11.728;2022-09-16T13:28:23;9.10;;;4.35;;
1294;SDS011;640;48.310;11.728;2022-09-16T13:30:54;9.52;;;4.32;;
1294;SDS011;640;48.310;11.728;2022-09-16T13:33:26;11.75;;;4.15;;
1294;SDS011;640;48.310;11.728;2022-09-16T13:38:57;4.80;;;3.00;;
1294;SDS011;640;48.310;11.728;2022-09-16T13:41:30;4.90;;;2.97;;
1294;SDS011;640;48.310;11.728;2022-09-16T13:44:02;5.53;;;3.10;;
1294;SDS011;640;48.310;11.728;2022-09-16T13:46:32;4.97;;;2.90;;
1294;SDS011;640;48.310;11.728;2022-09-16T13:49:04;8.68;;;3.38;;
1294;SDS011;640;48.310;11.728;2022-09-16T13:51:41;4.70;;;2.92;;
1294;SDS011;640;48.310;11.728;2022-09-16T13:54:18;4.68;;;3.50;;
1294;SDS011;640;48.310;11.728;2022-09-16T13:56:59;3.80;;;3.33;;
1294;SDS011;640;48.310;11.728;2022-09-16T13:59:54;3.78;;;3.47;;
1294;SDS011;640;48.310;11.728;2022-09-16T14:02:44;7.00;;;4.65;;
1294;SDS011;640;48.310;11.728;2022-09-16T14:08:15;6.18;;;4.28;;
1294;SDS011;640;48.310;11.728;2022-09-16T14:10:48;8.40;;;4.20;;
1294;SDS011;640;48.310;11.728;2022-09-16T14:13:22;6.50;;;4.20;;
1294;SDS011;640;48.310;11.728;2022-09-16T14:15:53;7.13;;;4.20;;
1294;SDS011;640;48.310;11.728;2022-09-16T14:18:24;6.47;;;4.40;;
1294;SDS011;640;48.310;11.728;2022-09-16T14:20:55;5.07;;;4.07;;
1294;SDS011;640;48.310;11.728;2022-09-16T14:23:27;6.80;;;4.38;;
1294;SDS011;640;48.310;11.728;2022-09-16T14:25:57;8.20;;;5.28;;
1294;SDS011;640;48.310;11.728;2022-09-16T14:28:26;7.38;;;5.10;;
1294;SDS011;640;48.310;11.728;2022-09-16T14:30:57;7.15;;;4.47;;
1294;SDS011;640;48.310;11.728;2022-09-16T14:33:26;6.28;;;4.82;;
1294;SDS011;640;48.310;11.728;2022-09-16T14:35:57;7.97;;;4.80;;
1294;SDS011;640;48.310;11.728;2022-09-16T14:38:30;7.20;;;4.60;;
1294;SDS011;640;48.310;11.728;2022-09-16T14:41:14;8.07;;;4.88;;
1294;SDS011;640;48.310;11.728;2022-09-16T14:43:46;6.03;;;4.60;;
1294;SDS011;640;48.310;11.728;2022-09-16T14:46:16;6.70;;;4.88;;
1294;SDS011;640;48.310;11.728;2022-09-16T14:48:44;7.38;;;4.85;;
1294;SDS011;640;48.310;11.728;2022-09-16T14:51:15;6.55;;;5.07;;
1294;SDS011;640;48.310;11.728;2022-09-16T14:53:54;6.90;;;4.72;;
1294;SDS011;640;48.310;11.728;2022-09-16T14:56:39;6.82;;;5.00;;
1294;SDS011;640;48.310;11.728;2022-09-16T14:59:09;6.15;;;5.43;;
1294;SDS011;640;48.310;11.728;2022-09-16T15:01:39;6.50;;;5.22;;
1294;SDS011;640;48.310;11.728;2022-09-16T15:04:08;8.10;;;5.75;;
1294;SDS011;640;48.310;11.728;2022-09-16T15:06:40;9.07;;;5.57;;
1294;SDS011;640;48.310;11.728;2022-09-16T15:09:12;6.22;;;5.43;;
1294;SDS011;640;48.310;11.728;2022-09-16T15:11:44;7.97;;;5.15;;
1294;SDS011;640;48.310;11.728;2022-09-16T15:14:15;6.55;;;5.22;;
1294;SDS011;640;48.310;11.728;2022-09-16T15:16:45;8.48;;;5.53;;
1294;SDS011;640;48.310;11.728;2022-09-16T15:19:15;7.88;;;5.30;;
1294;SDS011;640;48.310;11.728;2022-09-16T15:21:47;7.80;;;5.03;;
1294;SDS011;640;48.310;11.728;2022-09-16T15:24:16;6.55;;;5.20;;
1294;SDS011;640;48.310;11.728;2022-09-16T15:26:46;10.30;;;5.18;;
1294;SDS011;640;48.310;11.728;2022-09-16T15:29:25;6.72;;;5.40;;
1294;SDS011;640;48.310;11.728;2022-09-16T15:32:14;6.43;;;5.00;;
1294;SDS011;640;48.310;11.728;2022-09-16T15:34:45;7.65;;;5.05;;
1294;SDS011;640;48.310;11.728;2022-09-16T15:40:08;8.65;;;5.35;;
1294;SDS011;640;48.310;11.728;2022-09-16T15:42:38;8.80;;;5.40;;
1294;SDS011;640;48.310;11.728;2022-09-16T15:45:12;7.97;;;5.43;;
1294;SDS011;640;48.310;11.728;2022-09-16T15:47:51;6.97;;;5.07;;
1294;SDS011;640;48.310;11.728;2022-09-16T15:50:23;10.70;;;5.25;;
1294;SDS011;640;48.310;11.728;2022-09-16T15:52:53;14.20;;;11.10;;
1294;SDS011;640;48.310;11.728;2022-09-16T15:55:25;12.50;;;8.90;;
1294;SDS011;640;48.310;11.728;2022-09-16T15:57:58;9.73;;;7.85;;
1294;SDS011;640;48.310;11.728;2022-09-16T16:00:37;7.25;;;5.53;;
1294;SDS011;640;48.310;11.728;2022-09-16T16:03:34;7.43;;;5.65;;
1294;SDS011;640;48.310;11.728;2022-09-16T16:06:05;8.00;;;6.53;;
1294;SDS011;640;48.310;11.728;2022-09-16T16:08:41;8.75;;;5.47;;
1294;SDS011;640;48.310;11.728;2022-09-16T16:11:12;7.80;;;5.60;;
1294;SDS011;640;48.310;11.728;2022-09-16T16:13:41;11.23;;;5.90;;
1294;SDS011;640;48.310;11.728;2022-09-16T16:16:10;6.63;;;5.35;;
1294;SDS011;640;48.310;11.728;2022-09-16T16:18:42;6.68;;;5.18;;
1294;SDS011;640;48.310;11.728;2022-09-16T16:21:12;6.25;;;5.20;;
1294;SDS011;640;48.310;11.728;2022-09-16T16:23:42;10.70;;;5.10;;
1294;SDS011;640;48.310;11.728;2022-09-16T16:26:11;5.88;;;4.55;;
1294;SDS011;640;48.310;11.728;2022-09-16T16:28:39;8.65;;;5.57;;